OITK  Khoy  Airport

Khoy, Iran

Add Bookmark
ICAO OITK
IATA KHY
Type Airport
Status Operational
Latitude
38° 25' 39" N
38.427502
Longitude
44° 58' 24" E
44.973598
Local (DST + 5) UTC (GMT + 4)
Jul 5, 2015 02:58 Jul 4, 2015 22:28
Sunrise-Sunset Local UTC
Begin Civil Twilight 05:38 01:08
Sunrise 06:10 01:40
Sunset 08:58 16:28
End Civil Twilight 09:30 17:00
VFR
VFR
MVFR
MVFR
IFR
IFR
LIFR
LIFR
Unknown
Unavailable

Current Weather

METAR Observed VFR
OITK 040600Z 04014KT 9999 FEW040 29/16 Q1016 Sat, Jul 4, 2015 @ 06:00 UTC
(16 Hours, 28 Minutes ago)
Visual Flight Rules
Wind Visibility Clouds Conditions
040° at 14 knots (26 kph) 10 km or more
  • Few at 4,000 ft AGL
  • No significant weather
Temperatures Readings Precipitation
Current Temp
29°C
84°F
Dewpoint
16°C
61°F
Heat Index
29°C
84°
Humidity 45%
Altimeter 30" Hg
Sea Level Pressure 1,016 mb
Field Elevation
1,107 m
3,632 ft
None Recorded
-
-

CheckWX.com is intended as a tool to help pilots better visualize weather data. It is not intended as a substitute for an official weather briefing obtained from a Flight Service Station. CheckWX.com does not meet the FAA requirements for an official pre-flight weather briefing. Therefore, it's important that pilots still call and obtain an official FSS pre-flight weather briefing.

© 2007-2015 CheckWX.com
22:28:01 UTC